Time;durP1;ratioP1;P1;durP2;ratioP2;P2;SDS_P1;SDS_P2;PMS_P1;PMS_P2;Temp;Humidity;BMP_temperature;BMP_pressure;BME280_temperature;BME280_humidity;BME280_pressure;Samples;Min_cycle;Max_cycle;Signal;HPM_P1;HPM_P2
2023/10/19 00:01:58;;;;;;;12.98;8.80;;;;;;;15.81;82.46;99251.97;5031260;28;20052;-44
2023/10/19 00:04:31;;;;;;;13.02;8.88;;;;;;;16.01;80.79;99251.31;5030132;28;20116;-46
2023/10/19 00:06:57;;;;;;;14.32;8.75;;;;;;;16.11;80.10;99251.81;5031656;28;20048;-45
2023/10/19 00:09:22;;;;;;;15.07;9.23;;;;;;;15.89;80.85;99254.34;5029794;28;20029;-44
2023/10/19 00:11:51;;;;;;;13.20;8.98;;;;;;;15.38;84.09;99247.22;5030982;28;20034;-42
2023/10/19 00:14:17;;;;;;;13.02;8.90;;;;;;;15.82;82.44;99239.69;5030011;28;20052;-44
2023/10/19 00:16:54;;;;;;;14.00;9.13;;;;;;;15.63;83.34;99234.19;5030845;28;20508;-45
2023/10/19 00:19:20;;;;;;;13.52;8.98;;;;;;;15.62;84.39;99237.72;5030380;28;20443;-45
2023/10/19 00:21:55;;;;;;;13.15;8.68;;;;;;;16.04;82.44;99237.22;5031285;28;20033;-44
2023/10/19 00:24:22;;;;;;;12.23;8.60;;;;;;;15.63;83.75;99239.44;5031505;28;20033;-45
2023/10/19 00:26:48;;;;;;;12.95;8.60;;;;;;;15.88;83.52;99236.00;5031017;28;20041;-45
2023/10/19 00:31:59;;;;;;;13.15;8.38;;;;;;;16.01;82.22;99235.53;5030457;28;20077;-44
2023/10/19 00:34:25;;;;;;;12.35;8.10;;;;;;;16.25;82.04;99239.06;5029752;28;20040;-45
2023/10/19 00:36:51;;;;;;;12.13;7.97;;;;;;;16.46;81.05;99240.06;5030735;28;20159;-45
2023/10/19 00:39:27;;;;;;;11.25;8.25;;;;;;;16.09;81.76;99236.13;5029988;28;20136;-45
2023/10/19 00:41:57;;;;;;;12.50;8.35;;;;;;;16.02;83.38;99229.38;5030226;28;20407;-49
2023/10/19 00:44:25;;;;;;;12.02;8.02;;;;;;;16.13;82.85;99235.09;5029830;28;20230;-46
2023/10/19 00:47:00;;;;;;;12.05;8.60;;;;;;;16.32;82.17;99229.19;5030268;28;20112;-47
2023/10/19 00:49:26;;;;;;;11.63;7.82;;;;;;;16.58;80.96;99227.34;5029512;28;20033;-45
2023/10/19 00:54:31;;;;;;;11.75;8.13;;;;;;;16.40;82.51;99221.88;5029006;28;20434;-44
2023/10/19 00:57:03;;;;;;;12.65;8.43;;;;;;;16.23;83.16;99219.84;5030125;28;20404;-44
2023/10/19 00:59:35;;;;;;;11.45;7.97;;;;;;;16.42;82.28;99227.94;5029744;28;20442;-42
2023/10/19 01:02:16;;;;;;;11.57;8.13;;;;;;;16.59;81.61;99220.28;5029771;28;20041;-43
2023/10/19 01:04:42;;;;;;;12.73;8.18;;;;;;;16.46;82.25;99222.53;5029400;28;20034;-47
2023/10/19 01:07:44;;;;;;;11.98;7.95;;;;;;;16.67;81.36;99225.28;5029478;28;20175;-48
2023/10/19 01:10:19;;;;;;;13.27;8.45;;;;;;;16.33;83.00;99229.13;5028605;28;20033;-46
2023/10/19 01:12:45;;;;;;;10.88;7.88;;;;;;;16.54;82.42;99232.75;5029708;28;20399;-46
2023/10/19 01:15:23;;;;;;;11.32;8.35;;;;;;;16.87;81.04;99234.16;5029485;28;20037;-47
2023/10/19 01:17:52;;;;;;;12.02;8.13;;;;;;;16.99;80.38;99238.94;5029949;28;20044;-46
2023/10/19 01:20:22;;;;;;;11.95;8.27;;;;;;;17.04;80.01;99231.72;5028576;28;20057;-49
2023/10/19 01:23:08;;;;;;;12.32;8.13;;;;;;;17.07;80.04;99243.06;5029316;28;20063;-47
2023/10/19 01:28:22;;;;;;;14.32;8.70;;;;;;;17.06;81.01;99231.69;5029183;28;20244;-45
2023/10/19 01:30:51;;;;;;;10.57;7.28;;;;;;;17.02;81.88;99228.28;5029706;28;20447;-45
2023/10/19 01:33:18;;;;;;;10.80;7.13;;;;;;;17.29;81.54;99222.84;5030781;28;20037;-44
2023/10/19 01:38:31;;;;;;;10.27;7.13;;;;;;;17.47;81.27;99223.88;5029540;28;20048;-45
2023/10/19 01:41:00;;;;;;;10.95;6.88;;;;;;;17.57;81.70;99223.44;5029811;28;20562;-46
2023/10/19 01:43:30;;;;;;;9.57;6.40;;;;;;;17.65;81.48;99216.13;5027599;28;20034;-47
2023/10/19 01:46:04;;;;;;;8.38;6.03;;;;;;;17.76;81.44;99213.03;5029879;28;20041;-52
2023/10/19 01:48:33;;;;;;;7.68;5.47;;;;;;;17.82;81.67;99208.34;5028857;28;20116;-46
2023/10/19 01:51:04;;;;;;;6.70;4.40;;;;;;;17.81;82.34;99211.91;5029423;28;20037;-47
2023/10/19 01:53:29;;;;;;;6.53;4.20;;;;;;;17.95;81.87;99208.69;5028761;28;20033;-46
2023/10/19 01:55:57;;;;;;;6.45;3.50;;;;;;;18.03;82.02;99213.63;5029238;28;20025;-45
2023/10/19 01:58:27;;;;;;;5.72;3.20;;;;;;;18.15;81.40;99216.59;5028702;28;20037;-45
2023/10/19 02:01:00;;;;;;;6.13;2.80;;;;;;;18.14;81.67;99219.31;5029113;28;20034;-49
2023/10/19 02:03:28;;;;;;;5.32;2.60;;;;;;;18.27;81.27;99219.63;5028436;28;20045;-46
2023/10/19 02:06:00;;;;;;;6.05;2.40;;;;;;;18.25;81.33;99212.63;5029039;28;20030;-47
2023/10/19 02:08:26;;;;;;;5.47;2.30;;;;;;;18.27;81.02;99209.94;5028811;28;20511;-47
2023/10/19 02:10:52;;;;;;;4.60;1.98;;;;;;;18.25;81.32;99211.75;5029313;28;20033;-45
2023/10/19 02:13:19;;;;;;;4.00;1.80;;;;;;;18.28;81.62;99214.28;5028778;28;20048;-44
2023/10/19 02:15:45;;;;;;;3.63;1.63;;;;;;;18.25;81.61;99207.34;5029426;28;20083;-43
2023/10/19 02:18:11;;;;;;;4.07;1.60;;;;;;;18.35;81.66;99202.53;5028603;28;20030;-47
2023/10/19 02:20:40;;;;;;;3.67;1.60;;;;;;;18.41;81.30;99201.41;5029147;28;20033;-48
2023/10/19 02:23:07;;;;;;;3.90;1.45;;;;;;;18.39;81.34;99195.31;5029064;28;20037;-46
2023/10/19 02:25:36;;;;;;;4.07;1.70;;;;;;;18.39;81.11;99201.47;5028657;28;20025;-48
2023/10/19 02:28:07;;;;;;;3.70;1.40;;;;;;;18.39;81.15;99198.81;5029056;28;20037;-50
2023/10/19 02:30:33;;;;;;;2.65;1.27;;;;;;;18.37;81.20;99199.81;5028205;28;20043;-49
2023/10/19 02:33:00;;;;;;;3.75;1.40;;;;;;;18.38;81.02;99196.25;5030934;28;20122;-50
2023/10/19 02:35:27;;;;;;;5.20;1.42;;;;;;;18.39;81.22;99196.19;5031911;28;20041;-46
2023/10/19 02:37:53;;;;;;;3.67;1.20;;;;;;;18.31;81.44;99189.53;5032534;28;20034;-50
2023/10/19 02:40:23;;;;;;;3.92;1.20;;;;;;;18.33;81.49;99185.91;5032265;28;20045;-46
2023/10/19 02:42:50;;;;;;;1.88;1.10;;;;;;;18.37;81.65;99189.25;5032420;28;20051;-47
2023/10/19 02:45:16;;;;;;;4.15;1.38;;;;;;;18.37;81.29;99187.47;5031819;28;20452;-48
2023/10/19 02:47:46;;;;;;;3.03;1.10;;;;;;;18.39;81.18;99196.19;5032682;28;20112;-45
2023/10/19 02:50:16;;;;;;;4.57;1.10;;;;;;;18.40;81.12;99182.06;5033249;28;20403;-45
2023/10/19 02:52:43;;;;;;;3.30;1.00;;;;;;;18.37;81.46;99179.56;5033244;28;20089;-46
2023/10/19 02:55:09;;;;;;;2.55;1.00;;;;;;;18.40;80.98;99184.72;5032205;28;20091;-44
2023/10/19 02:57:37;;;;;;;4.38;1.05;;;;;;;18.44;81.19;99177.50;5032806;28;20033;-46
2023/10/19 03:00:11;;;;;;;2.67;0.90;;;;;;;18.41;80.95;99188.22;5032787;28;20033;-48
2023/10/19 03:02:36;;;;;;;2.88;1.00;;;;;;;18.40;81.15;99186.50;5031683;28;20567;-45
2023/10/19 03:05:09;;;;;;;1.92;1.10;;;;;;;18.39;81.18;99183.00;5032054;28;20120;-50
2023/10/19 03:07:34;;;;;;;2.33;0.90;;;;;;;18.48;80.77;99179.91;5031933;28;20044;-49
2023/10/19 03:10:02;;;;;;;2.13;1.00;;;;;;;18.51;80.47;99186.84;5032599;28;20041;-49
2023/10/19 03:12:27;;;;;;;3.72;1.10;;;;;;;18.42;80.59;99184.66;5032190;28;20146;-44
2023/10/19 03:14:52;;;;;;;3.45;0.95;;;;;;;18.42;80.93;99184.66;5032706;28;20478;-46
2023/10/19 03:17:18;;;;;;;2.53;1.00;;;;;;;18.27;81.12;99174.78;5033345;28;20575;-45
2023/10/19 03:19:43;;;;;;;4.60;1.10;;;;;;;18.36;80.83;99182.28;5036265;28;20106;-53
2023/10/19 03:22:10;;;;;;;4.18;1.00;;;;;;;18.23;80.25;99174.06;5035791;28;20045;-51
2023/10/19 03:24:35;;;;;;;2.65;1.02;;;;;;;18.16;80.28;99168.22;5034858;28;20037;-45
2023/10/19 03:27:22;;;;;;;2.95;1.02;;;;;;;18.05;80.16;99180.16;5032356;28;20329;-45
2023/10/19 03:29:53;;;;;;;1.83;0.98;;;;;;;17.91;81.13;99170.22;5030843;28;20059;-46
2023/10/19 03:32:22;;;;;;;1.65;1.00;;;;;;;17.99;80.49;99167.25;5031262;28;20419;-49
2023/10/19 03:34:48;;;;;;;3.97;1.05;;;;;;;17.97;80.01;99158.53;5031382;28;20087;-46
2023/10/19 03:37:14;;;;;;;4.07;1.10;;;;;;;17.84;80.38;99163.47;5031106;28;20061;-45
2023/10/19 03:39:41;;;;;;;2.40;1.20;;;;;;;17.72;80.79;99164.88;5031492;28;20060;-48
2023/10/19 03:42:06;;;;;;;3.80;1.00;;;;;;;17.74;80.45;99162.16;5029048;28;20045;-45
2023/10/19 03:47:35;;;;;;;3.60;1.00;;;;;;;17.77;81.30;99172.56;5026227;28;20034;-45
2023/10/19 03:50:06;;;;;;;3.08;1.30;;;;;;;17.93;80.91;99168.34;5032042;28;20041;-45
2023/10/19 03:52:32;;;;;;;3.67;1.10;;;;;;;17.85;81.21;99170.47;5032204;28;20053;-46
2023/10/19 03:54:58;;;;;;;2.97;0.85;;;;;;;17.97;81.07;99164.66;5033067;28;20470;-44
2023/10/19 03:57:24;;;;;;;3.67;1.00;;;;;;;18.04;80.55;99165.25;5032170;28;20120;-47
2023/10/19 03:59:56;;;;;;;2.05;0.90;;;;;;;17.93;80.57;99165.69;5031294;28;20025;-47
2023/10/19 04:02:21;;;;;;;4.40;1.00;;;;;;;17.97;80.76;99161.16;5030281;28;20037;-46
2023/10/19 04:04:52;;;;;;;2.05;0.90;;;;;;;18.01;80.55;99166.22;5031182;28;20030;-51
2023/10/19 04:07:21;;;;;;;3.22;0.90;;;;;;;18.03;80.62;99174.94;5030668;28;20051;-45
2023/10/19 04:09:58;;;;;;;4.65;1.17;;;;;;;18.05;80.65;99175.72;5030909;28;20034;-46
2023/10/19 04:12:25;;;;;;;3.13;1.10;;;;;;;18.07;80.41;99180.94;5030339;28;20038;-46
2023/10/19 04:14:50;;;;;;;3.38;1.10;;;;;;;18.12;80.08;99171.88;5030683;28;20040;-43
2023/10/19 04:17:21;;;;;;;2.97;1.10;;;;;;;18.15;79.90;99181.44;5030061;28;20100;-47
2023/10/19 04:19:55;;;;;;;4.00;1.00;;;;;;;18.09;80.44;99179.09;5030940;28;20033;-50
2023/10/19 04:22:23;;;;;;;4.53;1.08;;;;;;;18.08;80.24;99177.38;5030557;28;20037;-45
2023/10/19 04:24:51;;;;;;;5.47;1.10;;;;;;;17.97;80.03;99183.13;5030726;28;20501;-45
2023/10/19 04:27:16;;;;;;;5.22;1.08;;;;;;;18.09;80.02;99177.31;5028749;28;20065;-46
2023/10/19 04:29:43;;;;;;;4.88;1.02;;;;;;;18.17;79.86;99177.84;5030325;28;20053;-45
2023/10/19 04:32:14;;;;;;;4.55;1.10;;;;;;;18.13;79.80;99184.16;5029926;28;20542;-45
2023/10/19 04:34:39;;;;;;;4.75;1.30;;;;;;;18.04;80.10;99173.16;5030282;28;20408;-47
2023/10/19 04:37:06;;;;;;;3.13;1.02;;;;;;;17.90;80.71;99178.16;5030579;28;20037;-46
2023/10/19 04:39:32;;;;;;;5.25;1.30;;;;;;;18.05;80.14;99173.06;5029715;28;20034;-48
2023/10/19 04:41:57;;;;;;;6.10;1.30;;;;;;;18.04;79.86;99171.38;5030257;28;20041;-45
2023/10/19 04:44:22;;;;;;;5.85;1.35;;;;;;;18.04;79.75;99174.03;5029719;28;20037;-44
2023/10/19 04:46:48;;;;;;;6.57;1.48;;;;;;;18.10;79.95;99173.75;5030190;28;20038;-46
2023/10/19 04:49:13;;;;;;;3.90;1.23;;;;;;;18.10;79.57;99173.75;5029781;28;20483;-45
2023/10/19 04:51:43;;;;;;;3.63;1.20;;;;;;;17.95;80.06;99178.81;5030207;28;20026;-44
2023/10/19 04:54:08;;;;;;;2.92;1.13;;;;;;;17.97;79.99;99180.47;5029201;28;20045;-45
2023/10/19 04:56:35;;;;;;;3.70;1.00;;;;;;;18.03;79.87;99184.63;5030196;28;20399;-45
2023/10/19 04:59:02;;;;;;;3.35;1.10;;;;;;;18.04;80.13;99186.34;5029835;28;20128;-47
2023/10/19 05:01:28;;;;;;;5.10;1.30;;;;;;;18.03;79.35;99184.63;5029462;28;20514;-44
2023/10/19 05:03:53;;;;;;;6.10;1.27;;;;;;;18.16;78.87;99191.94;5029943;28;20029;-48
2023/10/19 05:06:18;;;;;;;3.78;1.05;;;;;;;18.10;79.21;99183.44;5030904;28;20034;-49
2023/10/19 05:08:44;;;;;;;2.53;1.00;;;;;;;18.15;78.74;99190.22;5031723;28;20164;-48
2023/10/19 05:11:09;;;;;;;3.38;1.05;;;;;;;18.15;78.56;99187.59;5030266;28;20514;-48
2023/10/19 05:13:35;;;;;;;3.85;1.30;;;;;;;18.08;79.49;99187.91;5030367;28;20087;-45
2023/10/19 05:16:00;;;;;;;4.30;1.20;;;;;;;18.13;79.07;99199.13;5032941;28;20069;-44
2023/10/19 05:18:26;;;;;;;4.35;1.02;;;;;;;18.18;78.47;99186.56;5029679;28;20103;-46
2023/10/19 05:20:57;;;;;;;5.97;1.23;;;;;;;18.12;78.36;99192.13;5029973;28;20550;-50
2023/10/19 05:23:27;;;;;;;5.10;1.30;;;;;;;18.17;78.16;99188.38;5029090;28;20041;-45
2023/10/19 05:25:59;;;;;;;5.18;1.10;;;;;;;18.20;78.09;99185.59;5029687;28;20033;-48
2023/10/19 05:28:24;;;;;;;3.83;1.13;;;;;;;18.15;78.03;99195.50;5031009;28;20030;-45
2023/10/19 05:30:50;;;;;;;3.58;1.00;;;;;;;18.23;77.76;99192.53;5038129;28;20026;-49
2023/10/19 05:33:15;;;;;;;4.15;1.00;;;;;;;18.26;77.79;99187.09;5032657;28;20618;-49
2023/10/19 05:35:41;;;;;;;4.68;1.15;;;;;;;18.24;77.90;99181.03;5029517;28;20404;-46
2023/10/19 05:38:07;;;;;;;4.35;1.00;;;;;;;18.21;77.98;99184.69;5029530;28;20515;-45
2023/10/19 05:40:33;;;;;;;5.20;1.20;;;;;;;18.25;77.73;99180.97;5029094;28;20033;-45
2023/10/19 05:43:00;;;;;;;4.43;1.00;;;;;;;18.27;77.47;99186.19;5028430;28;20025;-47
2023/10/19 05:45:27;;;;;;;3.17;0.98;;;;;;;18.23;77.85;99187.25;5028904;28;20076;-44
2023/10/19 05:47:53;;;;;;;4.43;1.10;;;;;;;18.16;77.74;99184.03;5029600;28;20036;-46
2023/10/19 05:50:19;;;;;;;4.43;1.15;;;;;;;18.28;77.64;99182.63;5028930;28;20041;-45
2023/10/19 05:52:45;;;;;;;6.80;1.20;;;;;;;18.08;78.16;99182.66;5029193;28;20112;-45
2023/10/19 05:55:10;;;;;;;3.38;1.08;;;;;;;18.21;78.11;99182.03;5028820;28;20038;-44
2023/10/19 05:57:42;;;;;;;2.42;0.90;;;;;;;18.24;77.67;99173.97;5029828;28;20041;-47
2023/10/19 06:00:15;;;;;;;3.65;1.13;;;;;;;18.05;78.39;99178.34;5030175;28;20103;-49
2023/10/19 06:02:45;;;;;;;3.63;1.20;;;;;;;18.18;78.04;99178.66;5029409;28;20040;-46
2023/10/19 06:05:10;;;;;;;3.78;1.05;;;;;;;18.25;77.74;99190.66;5031376;28;20510;-46
2023/10/19 06:07:36;;;;;;;3.88;1.00;;;;;;;18.24;77.31;99192.44;5032949;28;20029;-44
2023/10/19 06:10:04;;;;;;;2.45;0.82;;;;;;;18.32;77.57;99184.19;5036242;28;20065;-47
2023/10/19 06:12:31;;;;;;;3.95;1.05;;;;;;;18.29;77.37;99188.75;5033592;28;20030;-47
2023/10/19 06:14:56;;;;;;;3.17;1.13;;;;;;;18.30;77.61;99196.59;5033142;28;20061;-45
2023/10/19 06:17:21;;;;;;;4.95;1.15;;;;;;;18.10;78.72;99201.91;5032755;28;20432;-46
2023/10/19 06:19:47;;;;;;;4.22;1.10;;;;;;;18.37;77.69;99208.59;5033592;28;20275;-45
2023/10/19 06:22:15;;;;;;;6.43;1.17;;;;;;;18.47;77.28;99209.91;5033251;28;20132;-48
2023/10/19 06:24:40;;;;;;;4.38;1.13;;;;;;;18.46;77.56;99207.31;5033364;28;20557;-48
2023/10/19 06:27:05;;;;;;;6.05;1.13;;;;;;;18.39;77.69;99206.75;5033587;28;20037;-47
2023/10/19 06:29:31;;;;;;;5.07;1.20;;;;;;;18.45;77.74;99197.69;5033247;28;20041;-44
2023/10/19 06:31:56;;;;;;;3.00;1.20;;;;;;;18.37;77.88;99208.59;5033983;28;20160;-45
2023/10/19 06:34:22;;;;;;;3.88;1.38;;;;;;;18.47;77.39;99207.25;5033187;28;20086;-45
2023/10/19 06:36:47;;;;;;;4.72;1.42;;;;;;;18.54;76.96;99219.22;5033331;28;20095;-46
2023/10/19 06:39:13;;;;;;;4.30;1.02;;;;;;;18.55;76.96;99220.13;5033896;28;20033;-47
2023/10/19 06:41:39;;;;;;;5.25;1.20;;;;;;;18.47;76.97;99219.59;5033775;28;20080;-44
2023/10/19 06:44:05;;;;;;;4.85;1.30;;;;;;;18.45;77.43;99218.81;5032917;28;20330;-48
2023/10/19 06:46:31;;;;;;;3.85;1.30;;;;;;;18.49;77.56;99215.09;5032849;28;20528;-46
2023/10/19 06:49:00;;;;;;;1.73;0.98;;;;;;;18.52;77.76;99217.59;5031691;28;20037;-45
2023/10/19 06:51:29;;;;;;;3.70;1.02;;;;;;;18.48;77.48;99218.69;5032228;28;20268;-47
2023/10/19 06:53:55;;;;;;;5.30;1.20;;;;;;;18.32;78.54;99230.81;5032877;28;20033;-46
2023/10/19 06:56:20;;;;;;;3.53;1.00;;;;;;;18.60;77.39;99221.63;5033120;28;20064;-45
2023/10/19 06:58:46;;;;;;;4.40;1.17;;;;;;;18.72;77.02;99220.22;5033423;28;20503;-46
2023/10/19 07:01:12;;;;;;;8.18;1.15;;;;;;;18.26;78.14;99224.03;5032373;28;20057;-45
2023/10/19 07:03:38;;;;;;;5.38;1.27;;;;;;;18.65;77.22;99221.44;5032657;28;20054;-50
2023/10/19 07:06:03;;;;;;;4.05;1.00;;;;;;;18.91;76.12;99230.78;5032364;28;20065;-46
2023/10/19 07:08:30;;;;;;;5.68;1.23;;;;;;;18.75;76.51;99230.63;5031600;28;20483;-47
2023/10/19 07:10:55;;;;;;;6.60;1.38;;;;;;;18.69;76.62;99228.28;5032272;28;20026;-47
2023/10/19 07:13:21;;;;;;;5.55;1.20;;;;;;;18.59;76.58;99227.84;5029967;28;20510;-47
2023/10/19 07:15:48;;;;;;;3.25;1.10;;;;;;;18.76;76.79;99236.78;5031612;28;20048;-47
2023/10/19 07:18:14;;;;;;;5.90;1.30;;;;;;;18.99;75.72;99245.34;5030590;28;20380;-46
2023/10/19 07:20:42;;;;;;;4.28;1.23;;;;;;;18.91;76.01;99242.19;5031344;28;20040;-48
2023/10/19 07:23:10;;;;;;;7.72;1.40;;;;;;;18.90;75.61;99240.50;5031725;28;20502;-44
2023/10/19 07:25:47;;;;;;;3.97;1.20;;;;;;;19.09;75.36;99237.84;5031217;28;20037;-46
2023/10/19 07:28:14;;;;;;;6.63;1.23;;;;;;;19.05;75.14;99236.28;5030952;28;20041;-46
2023/10/19 07:30:41;;;;;;;4.78;1.33;;;;;;;19.03;75.31;99238.97;5031388;28;20522;-46
2023/10/19 07:33:06;;;;;;;4.78;1.40;;;;;;;19.03;75.79;99228.41;5031260;28;20033;-43
2023/10/19 07:35:38;;;;;;;3.88;1.20;;;;;;;19.19;75.19;99236.50;5030669;28;20037;-44
2023/10/19 07:38:04;;;;;;;6.20;1.20;;;;;;;19.18;75.05;99229.50;5031584;28;20045;-48
2023/10/19 07:40:30;;;;;;;2.53;1.08;;;;;;;19.28;74.69;99245.75;5030608;28;20078;-47
2023/10/19 07:42:56;;;;;;;5.32;1.30;;;;;;;19.34;74.24;99240.16;5031144;28;20048;-47
2023/10/19 07:45:21;;;;;;;4.25;1.30;;;;;;;19.34;74.25;99245.44;5030645;28;20090;-47
2023/10/19 07:47:47;;;;;;;4.40;1.13;;;;;;;19.31;74.66;99254.41;5031036;28;20034;-46
2023/10/19 07:50:16;;;;;;;6.82;1.50;;;;;;;19.43;74.11;99253.81;5030611;28;20080;-45
2023/10/19 07:52:48;;;;;;;6.78;1.80;;;;;;;19.38;74.63;99265.53;5029730;28;20037;-47
2023/10/19 07:55:14;;;;;;;7.10;1.30;;;;;;;19.46;74.36;99254.63;5029975;28;20052;-49
2023/10/19 07:57:40;;;;;;;6.18;1.55;;;;;;;19.49;74.24;99257.09;5031786;28;20538;-46
2023/10/19 08:00:08;;;;;;;4.50;1.50;;;;;;;19.58;74.20;99251.38;5031422;28;20038;-44
2023/10/19 08:02:34;;;;;;;3.72;1.30;;;;;;;19.59;74.06;99243.34;5030177;28;20029;-43
2023/10/19 08:05:02;;;;;;;4.90;1.48;;;;;;;19.71;73.91;99241.91;5030999;28;20041;-43
2023/10/19 08:07:28;;;;;;;5.47;1.50;;;;;;;19.76;73.71;99240.72;5030443;28;20041;-46
2023/10/19 08:09:54;;;;;;;4.68;1.30;;;;;;;19.88;73.46;99238.44;5030697;28;20095;-48
2023/10/19 08:12:22;;;;;;;6.53;1.42;;;;;;;19.95;73.17;99238.00;5030058;28;20040;-48
2023/10/19 08:14:48;;;;;;;4.10;1.40;;;;;;;19.92;73.42;99240.84;5030564;28;20530;-46
2023/10/19 08:17:13;;;;;;;5.32;1.20;;;;;;;19.99;73.08;99231.66;5030300;28;20033;-48
2023/10/19 08:19:38;;;;;;;6.47;1.40;;;;;;;20.09;72.75;99232.03;5030686;28;20041;-45
2023/10/19 08:22:05;;;;;;;4.80;1.60;;;;;;;20.10;72.90;99233.75;5030149;28;20041;-49
2023/10/19 08:24:30;;;;;;;4.82;1.40;;;;;;;20.14;72.48;99237.94;5030954;28;20021;-45
2023/10/19 08:26:56;;;;;;;7.13;1.48;;;;;;;20.18;72.24;99231.56;5031489;28;20060;-47
2023/10/19 08:29:21;;;;;;;7.35;1.60;;;;;;;20.23;71.66;99226.88;5030790;28;20424;-44
2023/10/19 08:31:47;;;;;;;5.00;1.63;;;;;;;20.17;71.74;99236.00;5030793;28;20041;-44
2023/10/19 08:34:13;;;;;;;4.72;1.48;;;;;;;20.13;71.74;99238.88;5030283;28;20033;-48
2023/10/19 08:36:38;;;;;;;5.50;1.55;;;;;;;20.17;71.57;99237.78;5030491;28;20115;-45
2023/10/19 08:39:08;;;;;;;6.15;1.50;;;;;;;20.16;71.81;99236.94;5029135;28;20033;-50
2023/10/19 08:41:35;;;;;;;6.50;1.42;;;;;;;20.27;71.82;99236.38;5030971;28;20025;-47
2023/10/19 08:44:10;;;;;;;6.15;2.03;;;;;;;20.35;71.86;99236.00;5032770;28;20173;-45
2023/10/19 08:46:45;;;;;;;5.13;1.63;;;;;;;20.48;71.64;99234.44;5031605;28;20041;-47
2023/10/19 08:49:19;;;;;;;5.75;1.90;;;;;;;20.59;71.56;99237.34;5020690;28;20050;-45
2023/10/19 08:51:46;;;;;;;6.75;1.67;;;;;;;20.75;71.82;99237.38;5009976;28;20057;-45
2023/10/19 08:54:13;;;;;;;8.20;1.63;;;;;;;20.96;71.13;99233.56;5010248;28;20034;-45
2023/10/19 08:56:41;;;;;;;7.55;1.80;;;;;;;20.93;69.93;99229.28;5010842;28;20036;-46
2023/10/19 08:59:06;;;;;;;5.97;1.80;;;;;;;20.92;70.28;99230.22;5008826;28;20041;-45
2023/10/19 09:01:32;;;;;;;5.50;1.92;;;;;;;20.98;68.63;99229.88;5009871;28;20444;-47
2023/10/19 09:04:00;;;;;;;7.15;2.08;;;;;;;21.26;68.97;99228.41;5009880;28;20384;-45
2023/10/19 09:06:28;;;;;;;8.25;1.85;;;;;;;21.42;68.30;99229.22;5009276;28;20065;-47
2023/10/19 09:08:53;;;;;;;6.18;1.50;;;;;;;21.43;67.75;99225.63;5009785;28;20488;-49
2023/10/19 09:11:20;;;;;;;6.55;2.00;;;;;;;21.17;68.14;99223.59;5007877;28;20104;-44
2023/10/19 09:13:50;;;;;;;7.85;2.00;;;;;;;21.14;68.02;99223.75;5009260;28;20116;-47
2023/10/19 09:16:17;;;;;;;8.38;2.60;;;;;;;21.24;68.50;99217.88;5009475;28;20045;-49
2023/10/19 09:18:44;;;;;;;9.43;2.70;;;;;;;21.19;68.70;99227.03;5009669;28;20054;-45
2023/10/19 09:21:21;;;;;;;6.90;1.80;;;;;;;21.36;68.69;99206.56;5009388;28;20444;-48
2023/10/19 09:23:47;;;;;;;9.00;2.50;;;;;;;21.22;68.16;99205.66;5009886;28;20050;-46
2023/10/19 09:26:12;;;;;;;7.97;2.20;;;;;;;21.50;68.10;99215.53;5009651;28;20065;-47
2023/10/19 09:28:39;;;;;;;10.77;2.20;;;;;;;21.53;67.65;99202.13;5009702;28;20492;-45
2023/10/19 09:31:05;;;;;;;4.93;1.75;;;;;;;21.66;67.65;99208.41;5009554;28;20088;-47
2023/10/19 09:33:34;;;;;;;6.57;1.95;;;;;;;21.76;67.13;99202.47;5009296;28;20030;-46
2023/10/19 09:36:12;;;;;;;9.00;2.40;;;;;;;21.83;66.54;99195.03;5009287;28;20077;-47
2023/10/19 09:38:51;;;;;;;7.75;2.08;;;;;;;21.51;66.12;99201.34;5009599;28;20053;-44
2023/10/19 09:41:28;;;;;;;8.27;1.90;;;;;;;21.67;66.90;99194.19;5016956;28;20467;-45
2023/10/19 09:44:04;;;;;;;8.82;2.17;;;;;;;21.85;66.98;99188.66;5009976;28;20113;-45
2023/10/19 09:46:32;;;;;;;7.63;2.00;;;;;;;21.89;66.05;99181.38;5009796;28;20142;-49
2023/10/19 09:48:58;;;;;;;6.80;1.80;;;;;;;22.12;65.92;99186.19;5009754;28;20038;-46
2023/10/19 09:51:24;;;;;;;7.78;2.00;;;;;;;22.17;66.19;99189.41;5007478;28;20030;-53
2023/10/19 09:54:31;;;;;;;6.63;2.03;;;;;;;21.89;65.44;99183.19;5009340;28;20030;-47
2023/10/19 09:57:02;;;;;;;17.02;3.28;;;;;;;21.96;66.00;99196.00;5009140;28;20038;-44
2023/10/19 09:59:41;;;;;;;7.35;1.90;;;;;;;22.05;65.43;99198.13;5008777;28;20559;-52
2023/10/19 10:02:13;;;;;;;7.85;2.30;;;;;;;22.03;65.48;99196.50;5009146;28;20515;-44
2023/10/19 10:04:39;;;;;;;7.25;2.20;;;;;;;22.09;65.77;99198.78;5008892;28;20033;-46
2023/10/19 10:07:07;;;;;;;6.30;2.10;;;;;;;21.78;65.66;99194.41;5009100;28;20044;-44
2023/10/19 10:09:39;;;;;;;8.73;2.13;;;;;;;21.45;66.78;99195.47;5015110;28;20032;-47
2023/10/19 10:12:18;;;;;;;8.40;2.20;;;;;;;21.37;67.02;99192.38;5028661;28;20124;-45
2023/10/19 10:14:55;;;;;;;9.32;2.20;;;;;;;21.45;67.42;99202.56;5029108;28;20171;-46
2023/10/19 10:17:22;;;;;;;7.20;2.10;;;;;;;21.57;67.27;99201.00;5029174;28;20044;-45
2023/10/19 10:19:48;;;;;;;9.95;2.20;;;;;;;21.58;68.05;99200.91;5030173;28;20029;-46
2023/10/19 10:22:18;;;;;;;7.90;2.38;;;;;;;21.72;66.44;99181.50;5028954;28;20461;-45
2023/10/19 10:24:44;;;;;;;8.90;2.30;;;;;;;21.59;67.68;99170.75;5028852;28;20029;-48
2023/10/19 10:27:13;;;;;;;8.27;2.30;;;;;;;21.85;67.49;99174.53;5029128;28;20033;-45
2023/10/19 10:29:58;;;;;;;10.50;2.28;;;;;;;21.99;66.39;99177.25;5030092;28;20033;-46
2023/10/19 10:32:42;;;;;;;9.30;2.38;;;;;;;21.96;66.85;99195.16;5032378;28;20026;-46
2023/10/19 10:35:08;;;;;;;;;;;;;;;22.10;66.53;99205.81;5033672;28;20072;-45
2023/10/19 10:37:36;;;;;;;8.40;2.30;;;;;;;22.27;66.37;99195.88;5028590;28;19913;-46
2023/10/19 10:40:03;;;;;;;8.40;2.47;;;;;;;22.21;66.57;99190.94;5028774;28;20063;-49
2023/10/19 10:42:29;;;;;;;7.68;2.28;;;;;;;22.38;65.87;99189.94;5010005;28;20076;-46
2023/10/19 10:44:55;;;;;;;8.30;2.17;;;;;;;22.59;65.55;99183.25;5008980;28;20078;-48
2023/10/19 10:47:24;;;;;;;9.77;2.60;;;;;;;22.46;64.34;99184.97;5008355;28;20037;-46
2023/10/19 10:49:57;;;;;;;9.32;2.38;;;;;;;22.36;64.62;99186.50;5009110;28;20446;-49
2023/10/19 10:52:27;;;;;;;6.55;1.90;;;;;;;22.57;64.33;99186.94;5008211;28;20038;-48
2023/10/19 10:54:53;;;;;;;8.73;2.17;;;;;;;22.58;64.55;99181.56;5011943;28;20554;-46
2023/10/19 10:57:19;;;;;;;8.40;2.00;;;;;;;22.40;64.85;99184.50;5012016;28;20149;-48
2023/10/19 10:59:45;;;;;;;9.45;2.20;;;;;;;22.25;65.82;99176.53;5012655;28;20396;-46
2023/10/19 11:02:21;;;;;;;7.85;1.95;;;;;;;22.33;65.09;99167.22;5009562;28;20045;-45
2023/10/19 11:04:47;;;;;;;9.52;2.30;;;;;;;22.37;65.11;99169.63;5012442;28;20026;-46
2023/10/19 11:07:19;;;;;;;9.30;2.10;;;;;;;22.58;64.93;99178.03;5031118;28;20079;-49
2023/10/19 11:09:46;;;;;;;8.88;1.88;;;;;;;22.50;64.28;99177.69;5031839;28;20535;-48
2023/10/19 11:12:12;;;;;;;10.23;2.33;;;;;;;22.98;63.35;99179.06;5031325;28;20120;-50
2023/10/19 11:14:50;;;;;;;9.88;2.17;;;;;;;22.98;62.58;99173.75;5031798;28;20045;-46
2023/10/19 11:17:16;;;;;;;9.27;2.13;;;;;;;23.32;61.93;99169.75;5014965;28;20413;-46
2023/10/19 11:19:41;;;;;;;8.77;2.00;;;;;;;23.23;61.53;99171.22;5011838;28;20030;-48
2023/10/19 11:22:10;;;;;;;9.77;2.10;;;;;;;23.56;61.39;99162.84;5011953;28;20042;-47
2023/10/19 11:24:39;;;;;;;9.73;2.00;;;;;;;23.50;60.63;99162.38;5011128;28;20045;-47
2023/10/19 11:27:07;;;;;;;9.55;1.98;;;;;;;23.09;61.51;99149.13;5011738;28;20034;-48
2023/10/19 11:29:33;;;;;;;9.27;2.08;;;;;;;22.94;62.22;99138.53;5011318;28;20164;-49
2023/10/19 11:32:00;;;;;;;6.40;1.70;;;;;;;23.07;62.20;99146.56;5011970;28;20045;-46
2023/10/19 11:34:28;;;;;;;6.72;2.00;;;;;;;22.69;63.24;99151.66;5010855;28;20042;-45
2023/10/19 11:36:56;;;;;;;9.10;2.13;;;;;;;22.78;62.83;99139.63;5011389;28;20121;-47
2023/10/19 11:39:23;;;;;;;8.05;2.22;;;;;;;22.21;64.71;99139.63;5011380;28;20038;-48
2023/10/19 11:41:49;;;;;;;12.43;2.10;;;;;;;22.64;63.37;99138.66;5011881;28;20423;-47
2023/10/19 11:44:14;;;;;;;8.10;1.77;;;;;;;22.92;62.56;99143.13;5011537;28;20096;-45
2023/10/19 11:46:40;;;;;;;8.32;2.28;;;;;;;22.50;62.99;99137.84;5012127;28;20036;-45
2023/10/19 11:49:06;;;;;;;8.07;1.90;;;;;;;22.76;62.71;99133.56;5011450;28;20038;-47
2023/10/19 11:51:31;;;;;;;7.18;1.73;;;;;;;23.10;61.82;99134.91;5009572;28;20527;-46